sensor_id;sensor_type;location;lat;lon;timestamp;P1;durP1;ratioP1;P2;durP2;ratioP2
36585;SDS011;22591;48.314;11.562;2022-12-15T00:00:47;70.80;;;40.67;;
36585;SDS011;22591;48.314;11.562;2022-12-15T00:03:32;68.97;;;38.58;;
36585;SDS011;22591;48.314;11.562;2022-12-15T00:06:16;65.40;;;39.97;;
36585;SDS011;22591;48.314;11.562;2022-12-15T00:09:01;75.32;;;40.70;;
36585;SDS011;22591;48.314;11.562;2022-12-15T00:11:46;65.80;;;39.78;;
36585;SDS011;22591;48.314;11.562;2022-12-15T00:14:30;69.43;;;39.35;;
36585;SDS011;22591;48.314;11.562;2022-12-15T00:17:14;69.60;;;39.55;;
36585;SDS011;22591;48.314;11.562;2022-12-15T00:19:58;73.07;;;39.10;;
36585;SDS011;22591;48.314;11.562;2022-12-15T00:22:42;70.78;;;40.50;;
36585;SDS011;22591;48.314;11.562;2022-12-15T00:25:27;67.28;;;37.83;;
36585;SDS011;22591;48.314;11.562;2022-12-15T00:28:11;67.72;;;39.08;;
36585;SDS011;22591;48.314;11.562;2022-12-15T00:30:56;67.75;;;37.65;;
36585;SDS011;22591;48.314;11.562;2022-12-15T00:33:41;65.78;;;37.13;;
36585;SDS011;22591;48.314;11.562;2022-12-15T00:36:25;68.60;;;39.30;;
36585;SDS011;22591;48.314;11.562;2022-12-15T00:39:10;68.57;;;39.83;;
36585;SDS011;22591;48.314;11.562;2022-12-15T00:41:36;60.90;;;36.05;;
36585;SDS011;22591;48.314;11.562;2022-12-15T00:44:02;68.95;;;37.83;;
36585;SDS011;22591;48.314;11.562;2022-12-15T00:46:28;69.07;;;40.28;;
36585;SDS011;22591;48.314;11.562;2022-12-15T00:49:12;73.78;;;42.05;;
36585;SDS011;22591;48.314;11.562;2022-12-15T00:51:56;77.13;;;40.38;;
36585;SDS011;22591;48.314;11.562;2022-12-15T00:54:41;73.93;;;40.88;;
36585;SDS011;22591;48.314;11.562;2022-12-15T00:57:25;73.38;;;42.08;;
36585;SDS011;22591;48.314;11.562;2022-12-15T01:00:09;68.35;;;38.42;;
36585;SDS011;22591;48.314;11.562;2022-12-15T01:02:54;67.78;;;40.50;;
36585;SDS011;22591;48.314;11.562;2022-12-15T01:05:38;60.53;;;36.13;;
36585;SDS011;22591;48.314;11.562;2022-12-15T01:08:22;64.72;;;37.25;;
36585;SDS011;22591;48.314;11.562;2022-12-15T01:11:06;74.20;;;43.08;;
36585;SDS011;22591;48.314;11.562;2022-12-15T01:13:51;63.92;;;36.83;;
36585;SDS011;22591;48.314;11.562;2022-12-15T01:16:35;67.78;;;39.70;;
36585;SDS011;22591;48.314;11.562;2022-12-15T01:19:19;69.50;;;40.47;;
36585;SDS011;22591;48.314;11.562;2022-12-15T01:22:04;76.18;;;39.75;;
36585;SDS011;22591;48.314;11.562;2022-12-15T01:24:31;69.88;;;40.85;;
36585;SDS011;22591;48.314;11.562;2022-12-15T01:26:56;76.35;;;43.28;;
36585;SDS011;22591;48.314;11.562;2022-12-15T01:29:22;76.10;;;43.00;;
36585;SDS011;22591;48.314;11.562;2022-12-15T01:31:48;71.20;;;43.90;;
36585;SDS011;22591;48.314;11.562;2022-12-15T01:34:14;74.10;;;41.38;;
36585;SDS011;22591;48.314;11.562;2022-12-15T01:36:39;73.32;;;40.85;;
36585;SDS011;22591;48.314;11.562;2022-12-15T01:39:05;77.95;;;41.58;;
36585;SDS011;22591;48.314;11.562;2022-12-15T01:41:30;69.45;;;40.67;;
36585;SDS011;22591;48.314;11.562;2022-12-15T01:46:48;81.10;;;44.75;;
36585;SDS011;22591;48.314;11.562;2022-12-15T01:49:22;77.17;;;43.03;;
36585;SDS011;22591;48.314;11.562;2022-12-15T01:51:53;77.90;;;42.60;;
36585;SDS011;22591;48.314;11.562;2022-12-15T01:54:24;79.80;;;44.63;;
36585;SDS011;22591;48.314;11.562;2022-12-15T01:56:58;76.57;;;42.55;;
36585;SDS011;22591;48.314;11.562;2022-12-15T01:59:28;79.00;;;41.88;;
36585;SDS011;22591;48.314;11.562;2022-12-15T02:01:58;78.00;;;42.47;;
36585;SDS011;22591;48.314;11.562;2022-12-15T02:04:23;83.95;;;45.47;;
36585;SDS011;22591;48.314;11.562;2022-12-15T02:06:49;70.80;;;41.42;;
36585;SDS011;22591;48.314;11.562;2022-12-15T02:09:16;73.00;;;40.80;;
36585;SDS011;22591;48.314;11.562;2022-12-15T02:14:27;69.57;;;40.00;;
36585;SDS011;22591;48.314;11.562;2022-12-15T02:20:03;75.72;;;41.42;;
36585;SDS011;22591;48.314;11.562;2022-12-15T02:28:12;68.38;;;41.58;;
36585;SDS011;22591;48.314;11.562;2022-12-15T02:30:48;71.97;;;42.13;;
36585;SDS011;22591;48.314;11.562;2022-12-15T02:33:45;70.57;;;40.50;;
36585;SDS011;22591;48.314;11.562;2022-12-15T02:36:38;81.13;;;41.92;;
36585;SDS011;22591;48.314;11.562;2022-12-15T02:39:10;68.22;;;40.35;;
36585;SDS011;22591;48.314;11.562;2022-12-15T02:41:37;72.10;;;42.33;;
36585;SDS011;22591;48.314;11.562;2022-12-15T02:44:07;73.15;;;42.08;;
36585;SDS011;22591;48.314;11.562;2022-12-15T02:55:19;73.18;;;44.10;;
36585;SDS011;22591;48.314;11.562;2022-12-15T03:00:38;69.93;;;40.47;;
36585;SDS011;22591;48.314;11.562;2022-12-15T03:03:09;74.45;;;42.25;;
36585;SDS011;22591;48.314;11.562;2022-12-15T03:05:35;72.40;;;42.08;;
36585;SDS011;22591;48.314;11.562;2022-12-15T03:08:01;75.35;;;43.53;;
36585;SDS011;22591;48.314;11.562;2022-12-15T03:10:27;86.82;;;47.58;;
36585;SDS011;22591;48.314;11.562;2022-12-15T03:12:52;83.78;;;45.72;;
36585;SDS011;22591;48.314;11.562;2022-12-15T03:15:22;77.47;;;44.10;;
36585;SDS011;22591;48.314;11.562;2022-12-15T03:17:48;83.38;;;45.88;;
36585;SDS011;22591;48.314;11.562;2022-12-15T03:20:13;72.30;;;41.65;;
36585;SDS011;22591;48.314;11.562;2022-12-15T03:22:39;75.10;;;43.85;;
36585;SDS011;22591;48.314;11.562;2022-12-15T03:25:05;72.82;;;42.13;;
36585;SDS011;22591;48.314;11.562;2022-12-15T03:27:31;76.57;;;43.58;;
36585;SDS011;22591;48.314;11.562;2022-12-15T03:29:56;78.72;;;46.00;;
36585;SDS011;22591;48.314;11.562;2022-12-15T03:32:22;81.40;;;44.75;;
36585;SDS011;22591;48.314;11.562;2022-12-15T03:34:47;80.28;;;45.42;;
36585;SDS011;22591;48.314;11.562;2022-12-15T03:37:13;91.95;;;46.90;;
36585;SDS011;22591;48.314;11.562;2022-12-15T03:39:38;89.88;;;46.85;;
36585;SDS011;22591;48.314;11.562;2022-12-15T03:42:04;75.38;;;42.47;;
36585;SDS011;22591;48.314;11.562;2022-12-15T03:44:30;78.78;;;43.10;;
36585;SDS011;22591;48.314;11.562;2022-12-15T03:46:55;80.38;;;44.35;;
36585;SDS011;22591;48.314;11.562;2022-12-15T03:49:21;66.78;;;38.22;;
36585;SDS011;22591;48.314;11.562;2022-12-15T03:51:46;79.18;;;42.28;;
36585;SDS011;22591;48.314;11.562;2022-12-15T03:54:12;72.00;;;43.00;;
36585;SDS011;22591;48.314;11.562;2022-12-15T03:56:38;70.60;;;40.47;;
36585;SDS011;22591;48.314;11.562;2022-12-15T03:59:04;73.57;;;40.33;;
36585;SDS011;22591;48.314;11.562;2022-12-15T04:01:30;72.93;;;40.35;;
36585;SDS011;22591;48.314;11.562;2022-12-15T04:04:00;72.25;;;40.50;;
36585;SDS011;22591;48.314;11.562;2022-12-15T04:06:27;69.32;;;40.55;;
36585;SDS011;22591;48.314;11.562;2022-12-15T04:08:53;73.85;;;42.78;;
36585;SDS011;22591;48.314;11.562;2022-12-15T04:11:18;75.10;;;42.38;;
36585;SDS011;22591;48.314;11.562;2022-12-15T04:13:44;83.07;;;44.58;;
36585;SDS011;22591;48.314;11.562;2022-12-15T04:16:09;73.25;;;40.95;;
36585;SDS011;22591;48.314;11.562;2022-12-15T04:18:35;72.40;;;40.97;;
36585;SDS011;22591;48.314;11.562;2022-12-15T04:21:01;71.90;;;40.22;;
36585;SDS011;22591;48.314;11.562;2022-12-15T04:23:27;69.57;;;39.83;;
36585;SDS011;22591;48.314;11.562;2022-12-15T04:25:53;74.10;;;42.05;;
36585;SDS011;22591;48.314;11.562;2022-12-15T04:28:37;67.70;;;39.83;;
36585;SDS011;22591;48.314;11.562;2022-12-15T04:31:22;77.97;;;40.38;;
36585;SDS011;22591;48.314;11.562;2022-12-15T04:34:14;69.32;;;38.63;;
36585;SDS011;22591;48.314;11.562;2022-12-15T04:37:03;71.13;;;40.08;;
36585;SDS011;22591;48.314;11.562;2022-12-15T04:39:49;79.68;;;42.63;;
36585;SDS011;22591;48.314;11.562;2022-12-15T04:42:37;78.82;;;43.85;;
36585;SDS011;22591;48.314;11.562;2022-12-15T04:45:24;78.93;;;41.30;;
36585;SDS011;22591;48.314;11.562;2022-12-15T04:48:09;74.65;;;40.22;;
36585;SDS011;22591;48.314;11.562;2022-12-15T04:50:53;73.97;;;41.33;;
36585;SDS011;22591;48.314;11.562;2022-12-15T04:53:37;73.57;;;41.53;;
36585;SDS011;22591;48.314;11.562;2022-12-15T04:56:23;72.93;;;41.97;;
36585;SDS011;22591;48.314;11.562;2022-12-15T04:59:09;80.25;;;45.25;;
36585;SDS011;22591;48.314;11.562;2022-12-15T05:01:53;73.28;;;40.83;;
36585;SDS011;22591;48.314;11.562;2022-12-15T05:04:40;65.75;;;38.53;;
36585;SDS011;22591;48.314;11.562;2022-12-15T05:07:25;65.53;;;38.15;;
36585;SDS011;22591;48.314;11.562;2022-12-15T05:10:12;66.10;;;41.05;;
36585;SDS011;22591;48.314;11.562;2022-12-15T05:13:04;70.47;;;41.03;;
36585;SDS011;22591;48.314;11.562;2022-12-15T05:15:51;69.93;;;41.20;;
36585;SDS011;22591;48.314;11.562;2022-12-15T05:18:37;68.25;;;39.30;;
36585;SDS011;22591;48.314;11.562;2022-12-15T05:21:23;72.03;;;41.95;;
36585;SDS011;22591;48.314;11.562;2022-12-15T05:24:09;63.65;;;38.33;;
36585;SDS011;22591;48.314;11.562;2022-12-15T05:26:56;66.53;;;40.38;;
36585;SDS011;22591;48.314;11.562;2022-12-15T05:29:42;70.88;;;42.70;;
36585;SDS011;22591;48.314;11.562;2022-12-15T05:32:30;75.20;;;40.10;;
36585;SDS011;22591;48.314;11.562;2022-12-15T05:34:58;81.32;;;41.72;;
36585;SDS011;22591;48.314;11.562;2022-12-15T05:37:26;65.97;;;38.53;;
36585;SDS011;22591;48.314;11.562;2022-12-15T05:39:53;65.53;;;38.17;;
36585;SDS011;22591;48.314;11.562;2022-12-15T05:42:21;67.68;;;39.90;;
36585;SDS011;22591;48.314;11.562;2022-12-15T05:44:49;75.72;;;41.25;;
36585;SDS011;22591;48.314;11.562;2022-12-15T05:47:16;70.00;;;40.53;;
36585;SDS011;22591;48.314;11.562;2022-12-15T05:49:43;73.20;;;39.97;;
36585;SDS011;22591;48.314;11.562;2022-12-15T05:52:08;78.47;;;41.63;;
36585;SDS011;22591;48.314;11.562;2022-12-15T05:54:35;71.57;;;39.17;;
36585;SDS011;22591;48.314;11.562;2022-12-15T05:57:02;68.03;;;40.53;;
36585;SDS011;22591;48.314;11.562;2022-12-15T05:59:29;71.38;;;41.13;;
36585;SDS011;22591;48.314;11.562;2022-12-15T06:01:56;70.60;;;40.47;;
36585;SDS011;22591;48.314;11.562;2022-12-15T06:04:21;71.38;;;39.40;;
36585;SDS011;22591;48.314;11.562;2022-12-15T06:06:48;70.53;;;39.63;;
36585;SDS011;22591;48.314;11.562;2022-12-15T06:09:15;66.18;;;37.92;;
36585;SDS011;22591;48.314;11.562;2022-12-15T06:11:43;64.20;;;38.75;;
36585;SDS011;22591;48.314;11.562;2022-12-15T06:14:08;66.72;;;39.42;;
36585;SDS011;22591;48.314;11.562;2022-12-15T06:16:35;63.30;;;37.28;;
36585;SDS011;22591;48.314;11.562;2022-12-15T06:19:02;64.50;;;38.80;;
36585;SDS011;22591;48.314;11.562;2022-12-15T06:21:29;63.78;;;38.72;;
36585;SDS011;22591;48.314;11.562;2022-12-15T06:23:57;65.70;;;37.63;;
36585;SDS011;22591;48.314;11.562;2022-12-15T06:26:31;67.43;;;37.72;;
36585;SDS011;22591;48.314;11.562;2022-12-15T06:29:01;67.28;;;37.58;;
36585;SDS011;22591;48.314;11.562;2022-12-15T06:31:30;60.58;;;35.88;;
36585;SDS011;22591;48.314;11.562;2022-12-15T06:34:01;66.63;;;37.45;;
36585;SDS011;22591;48.314;11.562;2022-12-15T06:36:30;60.92;;;37.63;;
36585;SDS011;22591;48.314;11.562;2022-12-15T06:38:59;63.53;;;39.00;;
36585;SDS011;22591;48.314;11.562;2022-12-15T06:41:27;63.90;;;38.00;;
36585;SDS011;22591;48.314;11.562;2022-12-15T06:43:55;67.00;;;40.35;;
36585;SDS011;22591;48.314;11.562;2022-12-15T06:46:23;65.35;;;39.28;;
36585;SDS011;22591;48.314;11.562;2022-12-15T06:48:51;68.53;;;37.65;;
36585;SDS011;22591;48.314;11.562;2022-12-15T06:51:19;69.75;;;39.55;;
36585;SDS011;22591;48.314;11.562;2022-12-15T06:53:46;65.38;;;37.78;;
36585;SDS011;22591;48.314;11.562;2022-12-15T06:56:32;65.40;;;37.85;;
36585;SDS011;22591;48.314;11.562;2022-12-15T06:59:04;64.88;;;37.40;;
36585;SDS011;22591;48.314;11.562;2022-12-15T07:01:32;67.38;;;38.53;;
36585;SDS011;22591;48.314;11.562;2022-12-15T07:03:59;60.15;;;36.60;;
36585;SDS011;22591;48.314;11.562;2022-12-15T07:06:35;54.45;;;34.40;;
36585;SDS011;22591;48.314;11.562;2022-12-15T07:09:05;68.07;;;37.72;;
36585;SDS011;22591;48.314;11.562;2022-12-15T07:11:33;79.43;;;43.60;;
36585;SDS011;22591;48.314;11.562;2022-12-15T07:14:00;66.18;;;38.85;;
36585;SDS011;22591;48.314;11.562;2022-12-15T07:16:27;70.20;;;40.03;;
36585;SDS011;22591;48.314;11.562;2022-12-15T07:18:53;62.55;;;36.67;;
36585;SDS011;22591;48.314;11.562;2022-12-15T07:21:20;73.93;;;39.88;;
36585;SDS011;22591;48.314;11.562;2022-12-15T07:23:47;70.60;;;39.88;;
36585;SDS011;22591;48.314;11.562;2022-12-15T07:26:14;63.90;;;38.60;;
36585;SDS011;22591;48.314;11.562;2022-12-15T07:28:42;61.78;;;36.88;;
36585;SDS011;22591;48.314;11.562;2022-12-15T07:31:09;69.43;;;39.17;;
36585;SDS011;22591;48.314;11.562;2022-12-15T07:33:37;70.53;;;41.17;;
36585;SDS011;22591;48.314;11.562;2022-12-15T07:36:04;70.65;;;41.40;;
36585;SDS011;22591;48.314;11.562;2022-12-15T07:38:32;73.50;;;40.83;;
36585;SDS011;22591;48.314;11.562;2022-12-15T07:41:00;78.57;;;43.08;;
36585;SDS011;22591;48.314;11.562;2022-12-15T07:43:28;70.55;;;42.35;;
36585;SDS011;22591;48.314;11.562;2022-12-15T07:45:56;68.20;;;40.72;;
36585;SDS011;22591;48.314;11.562;2022-12-15T07:48:23;76.07;;;42.13;;
36585;SDS011;22591;48.314;11.562;2022-12-15T07:50:50;68.93;;;39.92;;
36585;SDS011;22591;48.314;11.562;2022-12-15T07:53:25;67.97;;;39.72;;
36585;SDS011;22591;48.314;11.562;2022-12-15T07:55:55;75.97;;;42.13;;
36585;SDS011;22591;48.314;11.562;2022-12-15T07:58:27;80.45;;;42.42;;
36585;SDS011;22591;48.314;11.562;2022-12-15T08:00:57;71.15;;;40.38;;
36585;SDS011;22591;48.314;11.562;2022-12-15T08:03:26;67.63;;;41.80;;
36585;SDS011;22591;48.314;11.562;2022-12-15T08:05:53;71.50;;;42.20;;
36585;SDS011;22591;48.314;11.562;2022-12-15T08:08:20;70.65;;;40.70;;
36585;SDS011;22591;48.314;11.562;2022-12-15T08:10:48;67.85;;;41.22;;
36585;SDS011;22591;48.314;11.562;2022-12-15T08:13:14;69.28;;;39.80;;
36585;SDS011;22591;48.314;11.562;2022-12-15T08:15:43;65.82;;;40.72;;
36585;SDS011;22591;48.314;11.562;2022-12-15T08:18:09;73.43;;;41.88;;
36585;SDS011;22591;48.314;11.562;2022-12-15T08:20:36;62.08;;;39.22;;
36585;SDS011;22591;48.314;11.562;2022-12-15T08:23:03;61.28;;;37.40;;
36585;SDS011;22591;48.314;11.562;2022-12-15T08:25:30;64.05;;;39.03;;
36585;SDS011;22591;48.314;11.562;2022-12-15T08:27:59;59.72;;;36.78;;
36585;SDS011;22591;48.314;11.562;2022-12-15T08:30:25;64.55;;;36.38;;
36585;SDS011;22591;48.314;11.562;2022-12-15T08:32:51;54.97;;;36.58;;
36585;SDS011;22591;48.314;11.562;2022-12-15T08:35:18;70.22;;;41.45;;
36585;SDS011;22591;48.314;11.562;2022-12-15T08:37:45;64.20;;;40.78;;
36585;SDS011;22591;48.314;11.562;2022-12-15T08:40:14;58.88;;;35.92;;
36585;SDS011;22591;48.314;11.562;2022-12-15T08:42:40;55.70;;;35.97;;
36585;SDS011;22591;48.314;11.562;2022-12-15T08:45:07;59.55;;;35.22;;
36585;SDS011;22591;48.314;11.562;2022-12-15T08:47:38;59.35;;;37.25;;
36585;SDS011;22591;48.314;11.562;2022-12-15T08:50:07;59.38;;;39.40;;
36585;SDS011;22591;48.314;11.562;2022-12-15T08:52:33;54.13;;;34.92;;
36585;SDS011;22591;48.314;11.562;2022-12-15T08:54:59;56.28;;;37.30;;
36585;SDS011;22591;48.314;11.562;2022-12-15T08:57:27;56.22;;;35.40;;
36585;SDS011;22591;48.314;11.562;2022-12-15T08:59:54;64.78;;;38.72;;
36585;SDS011;22591;48.314;11.562;2022-12-15T09:02:22;60.92;;;38.80;;
36585;SDS011;22591;48.314;11.562;2022-12-15T09:04:48;56.38;;;37.22;;
36585;SDS011;22591;48.314;11.562;2022-12-15T09:07:17;52.38;;;35.53;;
36585;SDS011;22591;48.314;11.562;2022-12-15T09:09:43;57.13;;;38.70;;
36585;SDS011;22591;48.314;11.562;2022-12-15T09:12:12;58.10;;;38.55;;
36585;SDS011;22591;48.314;11.562;2022-12-15T09:14:39;59.63;;;38.95;;
36585;SDS011;22591;48.314;11.562;2022-12-15T09:17:05;53.65;;;36.30;;
36585;SDS011;22591;48.314;11.562;2022-12-15T09:19:32;69.07;;;39.15;;
36585;SDS011;22591;48.314;11.562;2022-12-15T09:22:01;61.25;;;37.95;;
36585;SDS011;22591;48.314;11.562;2022-12-15T09:24:32;63.08;;;38.45;;
36585;SDS011;22591;48.314;11.562;2022-12-15T09:26:59;61.85;;;38.67;;
36585;SDS011;22591;48.314;11.562;2022-12-15T09:29:27;65.28;;;40.88;;
36585;SDS011;22591;48.314;11.562;2022-12-15T09:31:55;60.03;;;38.38;;
36585;SDS011;22591;48.314;11.562;2022-12-15T09:34:23;65.82;;;38.97;;
36585;SDS011;22591;48.314;11.562;2022-12-15T09:36:51;65.63;;;40.38;;
36585;SDS011;22591;48.314;11.562;2022-12-15T09:39:18;70.50;;;41.45;;
36585;SDS011;22591;48.314;11.562;2022-12-15T09:41:52;63.13;;;38.80;;
36585;SDS011;22591;48.314;11.562;2022-12-15T09:44:24;61.78;;;38.50;;
36585;SDS011;22591;48.314;11.562;2022-12-15T09:52:38;61.90;;;38.63;;
36585;SDS011;22591;48.314;11.562;2022-12-15T09:55:23;61.85;;;37.42;;
36585;SDS011;22591;48.314;11.562;2022-12-15T10:01:21;55.80;;;36.30;;
36585;SDS011;22591;48.314;11.562;2022-12-15T10:07:35;55.22;;;36.25;;
36585;SDS011;22591;48.314;11.562;2022-12-15T10:19:00;48.35;;;32.72;;
36585;SDS011;22591;48.314;11.562;2022-12-15T10:21:32;48.17;;;33.20;;
36585;SDS011;22591;48.314;11.562;2022-12-15T10:24:15;57.83;;;36.60;;
36585;SDS011;22591;48.314;11.562;2022-12-15T10:35:31;59.95;;;38.28;;
36585;SDS011;22591;48.314;11.562;2022-12-15T10:38:01;60.17;;;37.22;;
36585;SDS011;22591;48.314;11.562;2022-12-15T10:40:45;53.90;;;36.17;;
36585;SDS011;22591;48.314;11.562;2022-12-15T10:48:54;60.08;;;35.63;;
36585;SDS011;22591;48.314;11.562;2022-12-15T10:54:18;53.53;;;35.05;;
36585;SDS011;22591;48.314;11.562;2022-12-15T10:56:47;45.20;;;30.48;;
36585;SDS011;22591;48.314;11.562;2022-12-15T10:59:33;52.05;;;34.30;;
36585;SDS011;22591;48.314;11.562;2022-12-15T11:02:17;44.63;;;31.40;;
36585;SDS011;22591;48.314;11.562;2022-12-15T11:07:48;48.72;;;34.50;;
36585;SDS011;22591;48.314;11.562;2022-12-15T11:10:18;50.80;;;32.70;;
36585;SDS011;22591;48.314;11.562;2022-12-15T11:15:54;53.45;;;36.42;;
36585;SDS011;22591;48.314;11.562;2022-12-15T11:18:22;54.60;;;37.47;;
36585;SDS011;22591;48.314;11.562;2022-12-15T11:23:58;57.75;;;37.22;;
36585;SDS011;22591;48.314;11.562;2022-12-15T11:26:52;54.25;;;37.13;;
36585;SDS011;22591;48.314;11.562;2022-12-15T11:29:33;52.92;;;36.05;;
36585;SDS011;22591;48.314;11.562;2022-12-15T11:32:28;56.83;;;37.75;;
36585;SDS011;22591;48.314;11.562;2022-12-15T11:34:59;59.17;;;37.80;;
36585;SDS011;22591;48.314;11.562;2022-12-15T11:37:41;55.80;;;35.30;;
36585;SDS011;22591;48.314;11.562;2022-12-15T11:40:39;62.03;;;40.95;;
36585;SDS011;22591;48.314;11.562;2022-12-15T11:46:18;54.17;;;36.78;;
36585;SDS011;22591;48.314;11.562;2022-12-15T11:54:20;65.22;;;39.15;;
36585;SDS011;22591;48.314;11.562;2022-12-15T11:57:10;60.17;;;38.95;;
36585;SDS011;22591;48.314;11.562;2022-12-15T11:59:56;69.82;;;41.22;;
36585;SDS011;22591;48.314;11.562;2022-12-15T12:12:03;71.68;;;42.15;;
36585;SDS011;22591;48.314;11.562;2022-12-15T12:15:22;66.60;;;40.83;;
36585;SDS011;22591;48.314;11.562;2022-12-15T12:17:49;74.82;;;44.10;;
36585;SDS011;22591;48.314;11.562;2022-12-15T12:20:50;72.78;;;45.85;;
36585;SDS011;22591;48.314;11.562;2022-12-15T12:23:35;74.38;;;45.88;;
36585;SDS011;22591;48.314;11.562;2022-12-15T12:29:15;74.82;;;44.20;;
36585;SDS011;22591;48.314;11.562;2022-12-15T12:34:16;71.40;;;41.33;;
36585;SDS011;22591;48.314;11.562;2022-12-15T12:37:21;82.45;;;44.60;;
36585;SDS011;22591;48.314;11.562;2022-12-15T12:40:29;72.38;;;43.10;;
36585;SDS011;22591;48.314;11.562;2022-12-15T12:43:10;71.45;;;39.28;;
36585;SDS011;22591;48.314;11.562;2022-12-15T12:45:56;68.90;;;40.30;;
36585;SDS011;22591;48.314;11.562;2022-12-15T12:48:53;73.80;;;41.42;;
36585;SDS011;22591;48.314;11.562;2022-12-15T12:51:33;69.72;;;39.88;;
36585;SDS011;22591;48.314;11.562;2022-12-15T12:54:08;73.90;;;42.97;;
36585;SDS011;22591;48.314;11.562;2022-12-15T12:56:57;67.22;;;41.88;;
36585;SDS011;22591;48.314;11.562;2022-12-15T12:59:34;66.13;;;38.45;;
36585;SDS011;22591;48.314;11.562;2022-12-15T13:04:49;72.38;;;40.92;;
36585;SDS011;22591;48.314;11.562;2022-12-15T13:07:33;68.13;;;40.13;;
36585;SDS011;22591;48.314;11.562;2022-12-15T13:10:19;72.15;;;42.80;;
36585;SDS011;22591;48.314;11.562;2022-12-15T13:27:11;71.85;;;39.58;;
36585;SDS011;22591;48.314;11.562;2022-12-15T13:29:55;71.43;;;41.55;;
36585;SDS011;22591;48.314;11.562;2022-12-15T13:32:41;68.20;;;40.85;;
36585;SDS011;22591;48.314;11.562;2022-12-15T13:35:25;68.63;;;37.70;;
36585;SDS011;22591;48.314;11.562;2022-12-15T13:43:28;73.50;;;42.30;;
36585;SDS011;22591;48.314;11.562;2022-12-15T13:46:15;75.20;;;42.10;;
36585;SDS011;22591;48.314;11.562;2022-12-15T13:49:00;76.43;;;42.38;;
36585;SDS011;22591;48.314;11.562;2022-12-15T13:52:16;77.03;;;43.38;;
36585;SDS011;22591;48.314;11.562;2022-12-15T13:55:14;82.80;;;43.13;;
36585;SDS011;22591;48.314;11.562;2022-12-15T13:58:18;76.32;;;43.17;;
36585;SDS011;22591;48.314;11.562;2022-12-15T14:00:51;78.88;;;43.50;;
36585;SDS011;22591;48.314;11.562;2022-12-15T14:03:21;82.63;;;44.22;;
36585;SDS011;22591;48.314;11.562;2022-12-15T14:05:49;78.97;;;45.42;;
36585;SDS011;22591;48.314;11.562;2022-12-15T14:08:27;80.35;;;43.42;;
36585;SDS011;22591;48.314;11.562;2022-12-15T14:11:19;81.45;;;44.63;;
36585;SDS011;22591;48.314;11.562;2022-12-15T14:13:48;81.30;;;44.20;;
36585;SDS011;22591;48.314;11.562;2022-12-15T14:16:18;78.13;;;43.50;;
36585;SDS011;22591;48.314;11.562;2022-12-15T14:19:02;73.57;;;42.83;;
36585;SDS011;22591;48.314;11.562;2022-12-15T14:21:39;79.70;;;42.00;;
36585;SDS011;22591;48.314;11.562;2022-12-15T14:24:21;77.97;;;43.63;;
36585;SDS011;22591;48.314;11.562;2022-12-15T14:26:51;82.32;;;44.90;;
36585;SDS011;22591;48.314;11.562;2022-12-15T14:29:19;80.93;;;44.55;;
36585;SDS011;22591;48.314;11.562;2022-12-15T14:31:48;82.88;;;44.45;;
36585;SDS011;22591;48.314;11.562;2022-12-15T14:34:27;80.20;;;45.42;;
36585;SDS011;22591;48.314;11.562;2022-12-15T14:36:59;82.75;;;45.33;;
36585;SDS011;22591;48.314;11.562;2022-12-15T14:42:15;81.82;;;44.22;;
36585;SDS011;22591;48.314;11.562;2022-12-15T14:44:53;83.72;;;44.63;;
36585;SDS011;22591;48.314;11.562;2022-12-15T14:47:33;79.20;;;44.40;;
36585;SDS011;22591;48.314;11.562;2022-12-15T14:50:00;86.28;;;46.40;;
36585;SDS011;22591;48.314;11.562;2022-12-15T14:55:48;87.03;;;45.88;;
36585;SDS011;22591;48.314;11.562;2022-12-15T14:57:59;87.53;;;45.05;;
36585;SDS011;22591;48.314;11.562;2022-12-15T15:00:34;82.80;;;45.22;;
36585;SDS011;22591;48.314;11.562;2022-12-15T15:03:16;88.13;;;46.42;;
36585;SDS011;22591;48.314;11.562;2022-12-15T15:06:00;85.10;;;47.38;;
36585;SDS011;22591;48.314;11.562;2022-12-15T15:08:34;87.68;;;45.70;;
36585;SDS011;22591;48.314;11.562;2022-12-15T15:14:13;85.30;;;43.33;;
36585;SDS011;22591;48.314;11.562;2022-12-15T15:16:57;90.55;;;45.13;;
36585;SDS011;22591;48.314;11.562;2022-12-15T15:19:33;80.60;;;46.60;;
36585;SDS011;22591;48.314;11.562;2022-12-15T15:22:02;87.35;;;45.40;;
36585;SDS011;22591;48.314;11.562;2022-12-15T15:24:36;93.82;;;49.22;;
36585;SDS011;22591;48.314;11.562;2022-12-15T15:27:22;83.40;;;47.00;;
36585;SDS011;22591;48.314;11.562;2022-12-15T15:32:49;88.05;;;46.83;;
36585;SDS011;22591;48.314;11.562;2022-12-15T15:35:18;99.13;;;48.13;;
36585;SDS011;22591;48.314;11.562;2022-12-15T15:37:45;92.13;;;48.85;;
36585;SDS011;22591;48.314;11.562;2022-12-15T15:40:12;90.13;;;47.72;;
36585;SDS011;22591;48.314;11.562;2022-12-15T15:42:41;95.90;;;49.40;;
36585;SDS011;22591;48.314;11.562;2022-12-15T15:45:11;100.63;;;50.13;;
36585;SDS011;22591;48.314;11.562;2022-12-15T15:47:41;95.28;;;49.42;;
36585;SDS011;22591;48.314;11.562;2022-12-15T15:50:12;99.25;;;49.30;;
36585;SDS011;22591;48.314;11.562;2022-12-15T15:52:42;97.03;;;50.17;;
36585;SDS011;22591;48.314;11.562;2022-12-15T15:55:15;104.80;;;53.55;;
36585;SDS011;22591;48.314;11.562;2022-12-15T15:57:46;94.20;;;48.53;;
36585;SDS011;22591;48.314;11.562;2022-12-15T16:00:19;100.55;;;49.63;;
36585;SDS011;22591;48.314;11.562;2022-12-15T16:02:48;98.25;;;50.67;;
36585;SDS011;22591;48.314;11.562;2022-12-15T16:05:16;102.88;;;51.38;;
36585;SDS011;22591;48.314;11.562;2022-12-15T16:07:47;105.03;;;51.40;;
36585;SDS011;22591;48.314;11.562;2022-12-15T16:10:21;100.45;;;50.88;;
36585;SDS011;22591;48.314;11.562;2022-12-15T16:12:48;97.70;;;49.75;;
36585;SDS011;22591;48.314;11.562;2022-12-15T16:15:20;90.53;;;48.92;;
36585;SDS011;22591;48.314;11.562;2022-12-15T16:17:52;104.85;;;53.55;;
36585;SDS011;22591;48.314;11.562;2022-12-15T16:20:21;93.63;;;49.72;;
36585;SDS011;22591;48.314;11.562;2022-12-15T16:22:51;99.90;;;51.08;;
36585;SDS011;22591;48.314;11.562;2022-12-15T16:27:57;106.30;;;52.05;;
36585;SDS011;22591;48.314;11.562;2022-12-15T16:30:25;100.60;;;49.97;;
36585;SDS011;22591;48.314;11.562;2022-12-15T16:32:53;96.72;;;50.60;;
36585;SDS011;22591;48.314;11.562;2022-12-15T16:35:24;107.13;;;51.60;;
36585;SDS011;22591;48.314;11.562;2022-12-15T16:37:51;101.95;;;50.05;;
36585;SDS011;22591;48.314;11.562;2022-12-15T16:40:25;107.28;;;51.50;;
36585;SDS011;22591;48.314;11.562;2022-12-15T16:42:55;103.55;;;51.25;;
36585;SDS011;22591;48.314;11.562;2022-12-15T16:45:26;97.15;;;51.85;;
36585;SDS011;22591;48.314;11.562;2022-12-15T16:47:55;99.15;;;51.00;;
36585;SDS011;22591;48.314;11.562;2022-12-15T16:50:24;102.90;;;51.58;;
36585;SDS011;22591;48.314;11.562;2022-12-15T16:53:15;102.55;;;51.10;;
36585;SDS011;22591;48.314;11.562;2022-12-15T16:55:57;111.83;;;51.93;;
36585;SDS011;22591;48.314;11.562;2022-12-15T16:58:26;104.47;;;51.55;;
36585;SDS011;22591;48.314;11.562;2022-12-15T17:00:55;105.25;;;51.38;;